createdAt,value
2023-05-20T00:00:05.547Z,84.79
2023-05-20T00:02:32.039Z,84.80
2023-05-20T00:04:58.531Z,84.81
2023-05-20T00:07:25.016Z,84.84
2023-05-20T00:09:51.731Z,84.87
2023-05-20T00:12:18.390Z,84.79
2023-05-20T00:14:44.855Z,84.79
2023-05-20T00:17:11.288Z,84.86
2023-05-20T00:19:37.742Z,84.80
2023-05-20T00:22:04.167Z,84.79
2023-05-20T00:24:30.570Z,84.85
2023-05-20T00:26:57.004Z,84.90
2023-05-20T00:29:23.425Z,84.91
2023-05-20T00:31:50.164Z,84.90
2023-05-20T00:34:16.637Z,84.84
2023-05-20T00:36:43.275Z,84.81
2023-05-20T00:39:09.689Z,84.86
2023-05-20T00:41:36.109Z,84.93
2023-05-20T00:44:02.531Z,84.86
2023-05-20T00:46:29.457Z,84.87
2023-05-20T00:48:56.078Z,84.93
2023-05-20T00:51:22.483Z,85.02
2023-05-20T00:53:49.128Z,84.90
2023-05-20T00:56:15.537Z,84.88
2023-05-20T00:58:42.058Z,84.84
2023-05-20T01:01:08.514Z,84.90
2023-05-20T01:03:35.105Z,84.97
2023-05-20T01:06:01.766Z,84.90
2023-05-20T01:08:28.196Z,84.92
2023-05-20T01:10:54.850Z,85.09
2023-05-20T01:13:21.262Z,84.86
2023-05-20T01:15:48.468Z,84.92
2023-05-20T01:18:15.000Z,84.85
2023-05-20T01:20:41.396Z,84.87
2023-05-20T01:23:07.848Z,84.87
2023-05-20T01:25:34.492Z,84.93
2023-05-20T01:28:01.004Z,84.84
2023-05-20T01:30:27.439Z,84.90
2023-05-20T01:32:53.904Z,85.00
2023-05-20T01:35:20.527Z,84.91
2023-05-20T01:37:47.142Z,85.09
2023-05-20T01:40:13.678Z,84.93
2023-05-20T01:42:40.095Z,84.92
2023-05-20T01:45:07.056Z,85.00
2023-05-20T01:47:33.711Z,84.90
2023-05-20T01:50:00.195Z,84.92
2023-05-20T01:52:26.877Z,84.98
2023-05-20T01:54:53.293Z,84.93
2023-05-20T01:57:19.924Z,85.03
2023-05-20T01:59:46.576Z,84.92
2023-05-20T02:02:13.111Z,85.11
2023-05-20T02:04:39.544Z,84.98
2023-05-20T02:07:05.957Z,85.14
2023-05-20T02:09:32.369Z,84.93
2023-05-20T02:11:58.761Z,84.95
2023-05-20T02:14:25.164Z,85.01
2023-05-20T02:16:51.870Z,85.00
2023-05-20T02:19:18.375Z,84.97
2023-05-20T02:21:44.813Z,85.04
2023-05-20T02:24:11.241Z,84.95
2023-05-20T02:26:37.909Z,85.02
2023-05-20T02:29:04.969Z,85.16
2023-05-20T02:31:31.376Z,85.16
2023-05-20T02:33:58.095Z,85.18
2023-05-20T02:36:24.530Z,85.02
2023-05-20T02:38:51.175Z,84.99
2023-05-20T02:41:17.804Z,85.02
2023-05-20T02:46:31.269Z,85.12
2023-05-20T02:48:57.765Z,85.23
2023-05-20T02:51:24.196Z,85.17
2023-05-20T02:53:50.851Z,85.00
2023-05-20T02:56:17.510Z,85.19
2023-05-20T02:58:43.922Z,85.05
2023-05-20T03:01:10.392Z,85.18
2023-05-20T03:03:36.867Z,85.02
2023-05-20T03:06:03.274Z,85.00
2023-05-20T03:08:29.688Z,85.00
2023-05-20T03:10:56.162Z,84.99
2023-05-20T03:13:22.580Z,84.96
2023-05-20T03:15:49.001Z,85.02
2023-05-20T03:18:15.388Z,85.00
2023-05-20T03:20:41.815Z,85.04
2023-05-20T03:23:08.383Z,84.92
2023-05-20T03:25:35.260Z,85.07
2023-05-20T03:28:01.895Z,85.02
2023-05-20T03:30:28.346Z,85.02
2023-05-20T03:32:54.822Z,84.95
2023-05-20T03:35:21.234Z,85.00
2023-05-20T03:37:47.653Z,85.16
2023-05-20T03:40:14.093Z,84.92
2023-05-20T03:42:40.773Z,85.05
2023-05-20T03:45:07.204Z,84.97
2023-05-20T03:47:33.853Z,84.97
2023-05-20T03:50:00.497Z,85.21
2023-05-20T03:52:26.936Z,84.97
2023-05-20T03:54:53.572Z,84.86
2023-05-20T03:57:19.999Z,84.88
2023-05-20T03:59:46.419Z,85.00
2023-05-20T04:02:12.910Z,85.10
2023-05-20T04:04:39.582Z,84.95
2023-05-20T04:07:06.000Z,85.03
2023-05-20T04:09:32.664Z,85.00
2023-05-20T04:11:59.141Z,84.94
2023-05-20T04:14:25.823Z,84.94
2023-05-20T04:16:52.278Z,84.97
2023-05-20T04:19:18.928Z,85.00
2023-05-20T04:21:45.343Z,85.07
2023-05-20T04:24:11.959Z,85.03
2023-05-20T04:26:38.359Z,84.98
2023-05-20T04:29:04.994Z,85.07
2023-05-20T04:31:31.442Z,85.03
2023-05-20T04:33:58.345Z,84.97
2023-05-20T04:36:24.805Z,85.06
2023-05-20T04:38:51.240Z,84.98
2023-05-20T04:41:17.640Z,84.99
2023-05-20T04:43:44.032Z,85.03
2023-05-20T04:46:10.507Z,85.02
2023-05-20T04:48:37.153Z,85.09
2023-05-20T04:51:03.582Z,85.11
2023-05-20T04:53:30.023Z,85.00
2023-05-20T04:55:56.447Z,85.06
2023-05-20T04:58:22.870Z,85.03
2023-05-20T05:00:49.285Z,85.01
2023-05-20T05:03:15.737Z,85.05
2023-05-20T05:05:42.215Z,85.02
2023-05-20T05:08:08.657Z,85.08
2023-05-20T05:10:35.090Z,85.06
2023-05-20T05:13:01.500Z,85.04
2023-05-20T05:15:27.904Z,85.06
2023-05-20T05:17:54.353Z,84.99
2023-05-20T05:20:20.805Z,85.10
2023-05-20T05:22:47.228Z,85.03
2023-05-20T05:25:13.649Z,85.00
2023-05-20T05:27:40.083Z,85.16
2023-05-20T05:30:06.754Z,85.11
2023-05-20T05:32:33.287Z,85.04
2023-05-20T05:34:59.724Z,85.15
2023-05-20T05:37:26.375Z,85.12
2023-05-20T05:39:52.800Z,85.13
2023-05-20T05:42:19.244Z,85.12
2023-05-20T05:44:45.687Z,85.16
2023-05-20T05:47:12.401Z,85.18
2023-05-20T05:49:38.938Z,85.23
2023-05-20T05:52:05.585Z,85.10
2023-05-20T05:54:32.019Z,85.07
2023-05-20T05:56:58.660Z,85.18
2023-05-20T05:59:25.094Z,85.12
2023-05-20T06:01:51.573Z,85.23
2023-05-20T06:04:18.107Z,85.24
2023-05-20T06:06:44.759Z,85.21
2023-05-20T06:09:11.393Z,85.33
2023-05-20T06:11:38.031Z,85.29
2023-05-20T06:14:04.460Z,85.24
2023-05-20T06:16:30.916Z,85.27
2023-05-20T06:18:57.504Z,85.25
2023-05-20T06:21:24.048Z,85.25
2023-05-20T06:23:51.271Z,85.25
2023-05-20T06:26:17.702Z,85.22
2023-05-20T06:28:44.328Z,85.31
2023-05-20T06:31:10.811Z,85.28
2023-05-20T06:33:37.496Z,85.42
2023-05-20T06:36:03.895Z,85.29
2023-05-20T06:38:30.542Z,85.27
2023-05-20T06:40:57.167Z,85.34
2023-05-20T06:43:23.569Z,85.35
2023-05-20T06:45:49.991Z,85.29
2023-05-20T06:48:16.415Z,85.41
2023-05-20T06:50:42.824Z,85.33
2023-05-20T06:53:09.226Z,85.43
2023-05-20T06:55:35.899Z,85.35
2023-05-20T06:58:02.516Z,85.44
2023-05-20T07:00:29.230Z,85.39
2023-05-20T07:02:55.673Z,85.39
2023-05-20T07:05:22.106Z,85.36
2023-05-20T07:07:48.555Z,85.46
2023-05-20T07:10:14.936Z,85.35
2023-05-20T07:12:41.337Z,85.41
2023-05-20T07:15:07.762Z,85.45
2023-05-20T07:17:34.232Z,85.45
2023-05-20T07:20:00.642Z,85.48
2023-05-20T07:22:27.047Z,85.50
2023-05-20T07:24:53.445Z,85.58
2023-05-20T07:27:19.857Z,85.58
2023-05-20T07:29:46.264Z,85.61
2023-05-20T07:32:12.702Z,85.57
2023-05-20T07:34:39.330Z,85.55
2023-05-20T07:37:05.748Z,85.53
2023-05-20T07:39:32.176Z,85.64
2023-05-20T07:41:58.602Z,85.67
2023-05-20T07:44:25.030Z,85.70
2023-05-20T07:46:51.419Z,85.61
2023-05-20T07:49:18.057Z,85.58
2023-05-20T07:51:44.696Z,85.60
2023-05-20T07:54:11.324Z,85.67
2023-05-20T07:56:37.725Z,85.68
2023-05-20T07:59:04.438Z,85.69
2023-05-20T08:01:30.873Z,85.71
2023-05-20T08:03:57.446Z,85.70
2023-05-20T08:06:24.188Z,85.67
2023-05-20T08:08:50.596Z,85.69
2023-05-20T08:11:17.248Z,85.77
2023-05-20T08:13:43.690Z,85.76
2023-05-20T08:16:10.121Z,85.76
2023-05-20T08:18:36.568Z,85.75
2023-05-20T08:21:03.214Z,85.69
2023-05-20T08:23:29.666Z,85.69
2023-05-20T08:25:56.288Z,85.72
2023-05-20T08:28:22.920Z,85.79
2023-05-20T08:30:49.352Z,85.77
2023-05-20T08:33:15.797Z,85.76
2023-05-20T08:35:42.278Z,85.75
2023-05-20T08:38:08.701Z,85.76
2023-05-20T08:40:35.182Z,85.80
2023-05-20T08:43:01.630Z,85.81
2023-05-20T08:45:28.065Z,85.84
2023-05-20T08:47:54.513Z,85.77
2023-05-20T08:50:20.950Z,85.79
2023-05-20T08:52:47.618Z,85.76
2023-05-20T08:55:14.043Z,85.82
2023-05-20T08:57:41.199Z,85.80
2023-05-20T09:00:07.646Z,85.81
2023-05-20T09:02:34.091Z,85.82
2023-05-20T09:05:00.789Z,85.82
2023-05-20T09:07:27.255Z,85.89
2023-05-20T09:09:53.682Z,85.98
2023-05-20T09:12:20.104Z,85.97
2023-05-20T09:14:46.523Z,85.90
2023-05-20T09:17:12.956Z,85.90
2023-05-20T09:19:39.400Z,85.91
2023-05-20T09:22:05.816Z,85.92
2023-05-20T09:24:32.233Z,85.87
2023-05-20T09:26:58.676Z,85.84
2023-05-20T09:29:25.083Z,85.93
2023-05-20T09:31:51.548Z,86.00
2023-05-20T09:34:18.012Z,86.01
2023-05-20T09:36:44.608Z,85.92
2023-05-20T09:39:11.024Z,85.98
2023-05-20T09:41:38.383Z,85.93
2023-05-20T09:44:04.782Z,85.97
2023-05-20T09:46:31.992Z,85.97
2023-05-20T09:48:58.494Z,85.97
2023-05-20T09:51:25.172Z,86.00
2023-05-20T09:53:51.572Z,86.00
2023-05-20T09:56:17.994Z,85.91
2023-05-20T09:58:44.396Z,85.91
2023-05-20T10:01:10.822Z,85.90
2023-05-20T10:03:37.380Z,85.94
2023-05-20T10:06:03.986Z,85.95
2023-05-20T10:08:30.421Z,85.85
2023-05-20T10:10:56.840Z,85.98
2023-05-20T10:13:23.268Z,85.99
2023-05-20T10:15:49.722Z,85.90
2023-05-20T10:18:16.196Z,85.97
2023-05-20T10:20:42.617Z,85.87
2023-05-20T10:23:09.092Z,85.92
2023-05-20T10:25:35.644Z,85.94
2023-05-20T10:28:02.216Z,85.93
2023-05-20T10:30:28.620Z,85.91
2023-05-20T10:32:55.282Z,86.00
2023-05-20T10:35:22.046Z,86.00
2023-05-20T10:37:48.696Z,86.05
2023-05-20T10:40:15.191Z,86.04
2023-05-20T10:42:41.831Z,85.88
2023-05-20T10:45:08.285Z,86.06
2023-05-20T10:47:34.754Z,86.00
2023-05-20T10:50:01.655Z,86.08
2023-05-20T10:52:28.076Z,86.00
2023-05-20T10:54:54.550Z,85.91
2023-05-20T10:57:21.029Z,85.94
2023-05-20T10:59:47.672Z,85.91
2023-05-20T11:02:14.093Z,85.97
2023-05-20T11:04:40.512Z,85.91
2023-05-20T11:07:06.953Z,86.05
2023-05-20T11:09:33.377Z,86.00
2023-05-20T11:12:00.061Z,85.93
2023-05-20T11:14:26.527Z,85.93
2023-05-20T11:16:53.015Z,85.89
2023-05-20T11:19:19.548Z,86.03
2023-05-20T11:21:46.020Z,86.15
2023-05-20T11:24:12.684Z,86.08
2023-05-20T11:26:39.121Z,86.04
2023-05-20T11:29:05.535Z,86.05
2023-05-20T11:31:32.024Z,86.00
2023-05-20T11:33:58.494Z,86.05
2023-05-20T11:36:27.808Z,86.09
2023-05-20T11:38:54.710Z,86.04
2023-05-20T11:41:21.131Z,86.19
2023-05-20T11:43:47.549Z,86.10
2023-05-20T11:46:14.193Z,86.11
2023-05-20T11:48:40.899Z,86.22
2023-05-20T11:51:07.311Z,86.12
2023-05-20T11:53:33.745Z,86.20
2023-05-20T11:56:00.232Z,86.26
2023-05-20T11:58:26.914Z,86.10
2023-05-20T12:00:59.467Z,86.10
2023-05-20T12:03:32.157Z,86.22
2023-05-20T12:08:46.088Z,86.05
2023-05-20T12:11:12.703Z,86.28
2023-05-20T12:13:39.123Z,86.06
2023-05-20T12:16:05.593Z,86.27
2023-05-20T12:18:32.253Z,86.21
2023-05-20T12:20:58.655Z,86.27
2023-05-20T12:23:25.296Z,86.38
2023-05-20T12:25:51.919Z,86.25
2023-05-20T12:28:18.563Z,86.15
2023-05-20T12:30:44.998Z,86.12
2023-05-20T12:33:11.469Z,86.16
2023-05-20T12:35:37.911Z,86.09
2023-05-20T12:38:04.361Z,86.25
2023-05-20T12:40:30.788Z,86.18
2023-05-20T12:42:57.239Z,86.40
2023-05-20T12:45:23.666Z,86.30
2023-05-20T12:47:50.127Z,86.16
2023-05-20T12:50:16.549Z,86.21
2023-05-20T12:52:42.970Z,86.19
2023-05-20T12:55:09.401Z,86.42
2023-05-20T12:57:35.836Z,86.43
2023-05-20T13:00:02.279Z,86.46
2023-05-20T13:02:28.850Z,86.23
2023-05-20T13:04:55.327Z,86.19
2023-05-20T13:07:21.738Z,86.19
2023-05-20T13:09:48.349Z,86.10
2023-05-20T13:12:14.796Z,86.30
2023-05-20T13:14:41.200Z,86.30
2023-05-20T13:17:07.720Z,86.20
2023-05-20T13:19:35.326Z,86.23
2023-05-20T13:22:01.999Z,86.26
2023-05-20T13:24:28.422Z,86.28
2023-05-20T13:26:54.859Z,86.10
2023-05-20T13:29:21.297Z,86.25
2023-05-20T13:31:47.715Z,86.17
2023-05-20T13:34:14.166Z,86.00
2023-05-20T13:36:40.790Z,86.17
2023-05-20T13:39:07.191Z,86.05
2023-05-20T13:41:33.614Z,86.06
2023-05-20T13:44:00.023Z,86.27
2023-05-20T13:46:26.445Z,86.14
2023-05-20T13:48:52.879Z,85.99
2023-05-20T13:51:19.286Z,86.03
2023-05-20T13:53:45.714Z,86.07
2023-05-20T13:56:12.138Z,86.04
2023-05-20T13:58:38.577Z,86.05
2023-05-20T14:01:05.055Z,85.98
2023-05-20T14:03:31.584Z,86.01
2023-05-20T14:05:58.047Z,85.92
2023-05-20T14:08:24.468Z,85.98
2023-05-20T14:10:50.881Z,86.06
2023-05-20T14:13:17.648Z,85.96
2023-05-20T14:15:44.112Z,86.02
2023-05-20T14:18:10.567Z,86.06
2023-05-20T14:20:37.172Z,86.00
2023-05-20T14:23:03.867Z,86.09
2023-05-20T14:25:30.267Z,86.04
2023-05-20T14:27:56.672Z,85.95
2023-05-20T14:30:23.086Z,86.04
2023-05-20T14:32:49.787Z,86.07
2023-05-20T14:35:16.260Z,85.93
2023-05-20T14:37:42.671Z,85.89
2023-05-20T14:40:09.313Z,85.92
2023-05-20T14:42:35.733Z,85.94
2023-05-20T14:45:02.201Z,85.92
2023-05-20T14:47:28.687Z,85.97
2023-05-20T14:49:55.134Z,86.00
2023-05-20T14:52:21.565Z,85.94
2023-05-20T14:54:48.026Z,85.95
2023-05-20T14:57:14.437Z,85.96
2023-05-20T14:59:40.881Z,85.97
2023-05-20T15:02:07.337Z,85.93
2023-05-20T15:04:33.800Z,85.94
2023-05-20T15:07:00.225Z,85.96
2023-05-20T15:09:27.019Z,85.89
2023-05-20T15:11:53.441Z,85.98
2023-05-20T15:14:19.862Z,86.07
2023-05-20T15:16:46.310Z,86.11
2023-05-20T15:19:12.772Z,86.03
2023-05-20T15:21:39.216Z,86.07
2023-05-20T15:24:05.659Z,86.03
2023-05-20T15:26:32.090Z,86.04
2023-05-20T15:28:58.485Z,86.01
2023-05-20T15:31:24.900Z,86.05
2023-05-20T15:33:51.464Z,86.00
2023-05-20T15:36:17.992Z,86.00
2023-05-20T15:38:44.433Z,86.00
2023-05-20T15:41:11.088Z,85.99
2023-05-20T15:43:37.537Z,85.99
2023-05-20T15:46:04.023Z,86.02
2023-05-20T15:48:30.460Z,85.99
2023-05-20T15:50:56.882Z,86.00
2023-05-20T15:53:23.287Z,85.99
2023-05-20T15:55:49.744Z,86.03
2023-05-20T15:58:16.153Z,86.00
2023-05-20T16:00:42.561Z,85.98
2023-05-20T16:03:09.077Z,85.95
2023-05-20T16:05:35.749Z,86.03
2023-05-20T16:08:02.353Z,86.01
2023-05-20T16:10:28.974Z,86.05
2023-05-20T16:12:55.386Z,86.02
2023-05-20T16:15:21.808Z,86.04
2023-05-20T16:17:48.275Z,86.05
2023-05-20T16:20:14.723Z,86.05
2023-05-20T16:22:41.159Z,86.08
2023-05-20T16:25:07.589Z,86.00
2023-05-20T16:27:34.002Z,86.09
2023-05-20T16:30:00.532Z,86.09
2023-05-20T16:32:27.070Z,86.06
2023-05-20T16:34:53.578Z,86.11
2023-05-20T16:37:19.999Z,86.08
2023-05-20T16:39:46.449Z,86.04
2023-05-20T16:42:13.062Z,86.12
2023-05-20T16:44:39.486Z,86.14
2023-05-20T16:47:06.699Z,86.12
2023-05-20T16:49:33.122Z,86.11
2023-05-20T16:51:59.622Z,86.12
2023-05-20T16:54:26.294Z,86.08
2023-05-20T16:56:52.707Z,86.10
2023-05-20T16:59:19.151Z,86.13
2023-05-20T17:01:45.599Z,86.15
2023-05-20T17:04:12.061Z,86.11
2023-05-20T17:06:38.709Z,86.14
2023-05-20T17:09:05.121Z,86.13
2023-05-20T17:11:31.557Z,86.24
2023-05-20T17:13:57.983Z,86.18
2023-05-20T17:16:24.435Z,86.12
2023-05-20T17:18:50.962Z,86.15
2023-05-20T17:21:17.409Z,86.18
2023-05-20T17:23:43.804Z,86.20
2023-05-20T17:26:10.234Z,86.16
2023-05-20T17:28:36.638Z,86.18
2023-05-20T17:31:03.050Z,86.20
2023-05-20T17:33:29.812Z,86.20
2023-05-20T17:35:56.290Z,86.25
2023-05-20T17:38:22.727Z,86.23
2023-05-20T17:40:49.144Z,86.24
2023-05-20T17:43:15.574Z,86.20
2023-05-20T17:45:42.006Z,86.27
2023-05-20T17:48:10.916Z,86.27
2023-05-20T17:50:38.297Z,86.26
2023-05-20T17:53:04.690Z,86.30
2023-05-20T17:55:31.112Z,86.25
2023-05-20T17:57:57.538Z,86.26
2023-05-20T18:00:24.039Z,86.29
2023-05-20T18:02:50.569Z,86.34
2023-05-20T18:05:17.078Z,86.34
2023-05-20T18:07:43.508Z,86.32
2023-05-20T18:10:09.926Z,86.36
2023-05-20T18:12:36.359Z,86.30
2023-05-20T18:15:02.807Z,86.34
2023-05-20T18:17:29.270Z,86.35
2023-05-20T18:19:55.712Z,86.38
2023-05-20T18:22:22.119Z,86.35
2023-05-20T18:24:48.555Z,86.35
2023-05-20T18:27:14.976Z,86.32
2023-05-20T18:29:41.411Z,86.35
2023-05-20T18:32:07.893Z,86.30
2023-05-20T18:34:34.455Z,86.34
2023-05-20T18:37:00.876Z,86.32
2023-05-20T18:39:27.428Z,86.35
2023-05-20T18:41:54.089Z,86.32
2023-05-20T18:44:20.523Z,86.34
2023-05-20T18:46:47.137Z,86.32
2023-05-20T18:49:13.520Z,86.29
2023-05-20T18:51:40.935Z,86.33
2023-05-20T18:54:07.350Z,86.33
2023-05-20T18:56:33.964Z,86.36
2023-05-20T18:59:00.380Z,86.35
2023-05-20T19:01:26.835Z,86.31
2023-05-20T19:03:53.315Z,86.31
2023-05-20T19:06:19.924Z,86.35
2023-05-20T19:08:46.314Z,86.30
2023-05-20T19:11:12.951Z,86.31
2023-05-20T19:13:39.430Z,86.33
2023-05-20T19:16:05.868Z,86.30
2023-05-20T19:18:32.282Z,86.27
2023-05-20T19:20:58.715Z,86.33
2023-05-20T19:23:25.381Z,86.30
2023-05-20T19:25:52.014Z,86.33
2023-05-20T19:28:18.453Z,86.36
2023-05-20T19:30:44.946Z,86.33
2023-05-20T19:33:11.697Z,86.31
2023-05-20T19:35:38.338Z,86.27
2023-05-20T19:38:04.900Z,86.33
2023-05-20T19:40:31.386Z,86.26
2023-05-20T19:42:57.856Z,86.29
2023-05-20T19:45:24.298Z,86.25
2023-05-20T19:47:50.743Z,86.30
2023-05-20T19:50:17.214Z,86.32
2023-05-20T19:52:43.633Z,86.29
2023-05-20T19:55:10.059Z,86.26
2023-05-20T19:57:36.465Z,86.27
2023-05-20T20:00:02.898Z,86.26
2023-05-20T20:02:29.570Z,86.22
2023-05-20T20:04:56.002Z,86.24
2023-05-20T20:07:22.656Z,86.25
2023-05-20T20:09:49.091Z,86.28
2023-05-20T20:12:15.524Z,86.27
2023-05-20T20:14:41.959Z,86.25
2023-05-20T20:17:08.374Z,86.22
2023-05-20T20:19:34.867Z,86.30
2023-05-20T20:22:01.307Z,86.25
2023-05-20T20:24:27.703Z,86.28
2023-05-20T20:26:54.324Z,86.24
2023-05-20T20:29:20.764Z,86.23
2023-05-20T20:31:47.260Z,86.23
2023-05-20T20:34:13.697Z,86.17
2023-05-20T20:36:40.115Z,86.21
2023-05-20T20:39:06.514Z,86.23
2023-05-20T20:41:32.928Z,86.26
2023-05-20T20:43:59.340Z,86.24
2023-05-20T20:46:25.983Z,86.23
2023-05-20T20:48:52.427Z,86.21
2023-05-20T20:51:19.079Z,86.24
2023-05-20T20:53:45.509Z,86.22
2023-05-20T20:56:11.940Z,86.22
2023-05-20T20:58:38.394Z,86.24
2023-05-20T21:01:05.099Z,86.18
2023-05-20T21:03:31.523Z,86.23
2023-05-20T21:05:57.957Z,86.19
2023-05-20T21:08:24.588Z,86.19
2023-05-20T21:10:51.016Z,86.21
2023-05-20T21:13:17.447Z,86.26
2023-05-20T21:15:43.861Z,86.23
2023-05-20T21:18:10.467Z,86.23
2023-05-20T21:20:36.891Z,86.23
2023-05-20T21:23:03.306Z,86.18
2023-05-20T21:25:29.712Z,86.19
2023-05-20T21:27:56.124Z,86.22
2023-05-20T21:30:22.825Z,86.19
2023-05-20T21:32:49.301Z,86.17
2023-05-20T21:35:16.015Z,86.17
2023-05-20T21:37:42.445Z,86.17
2023-05-20T21:40:09.119Z,86.19
2023-05-20T21:42:35.564Z,86.19
2023-05-20T21:45:02.753Z,86.22
2023-05-20T21:47:29.195Z,86.20
2023-05-20T21:49:55.621Z,86.22
2023-05-20T21:52:22.801Z,86.20
2023-05-20T21:54:49.417Z,86.21
2023-05-20T21:57:16.032Z,86.24
2023-05-20T21:59:42.466Z,86.24
2023-05-20T22:02:09.151Z,86.25
2023-05-20T22:04:35.810Z,86.22
2023-05-20T22:07:02.242Z,86.20
2023-05-20T22:09:28.690Z,86.23
2023-05-20T22:11:55.120Z,86.24
2023-05-20T22:14:21.534Z,86.25
2023-05-20T22:16:48.033Z,86.24
2023-05-20T22:19:14.672Z,86.25
2023-05-20T22:21:49.625Z,86.23
2023-05-20T22:24:17.584Z,86.19
2023-05-20T22:26:44.124Z,86.23
2023-05-20T22:29:13.564Z,86.24
2023-05-20T22:31:40.042Z,86.18
2023-05-20T22:34:06.457Z,86.24
2023-05-20T22:36:32.891Z,86.16
2023-05-20T22:38:59.307Z,86.27
2023-05-20T22:41:25.962Z,86.27
2023-05-20T22:43:52.392Z,86.23
2023-05-20T22:46:18.889Z,86.27
2023-05-20T22:48:45.331Z,86.28
2023-05-20T22:51:11.741Z,86.26
2023-05-20T22:53:38.177Z,86.24
2023-05-20T22:56:04.600Z,86.22
2023-05-20T22:58:30.991Z,86.28
2023-05-20T23:00:57.469Z,86.24
2023-05-20T23:03:23.903Z,86.27
2023-05-20T23:05:50.541Z,86.25
2023-05-20T23:08:16.933Z,86.26
2023-05-20T23:10:43.338Z,86.24
2023-05-20T23:13:09.966Z,86.29
2023-05-20T23:15:36.921Z,86.31
2023-05-20T23:18:03.612Z,86.28
2023-05-20T23:20:30.419Z,86.25
2023-05-20T23:22:56.856Z,86.24
2023-05-20T23:25:23.298Z,86.27
2023-05-20T23:27:49.729Z,86.28
2023-05-20T23:30:16.360Z,86.31
2023-05-20T23:32:43.028Z,86.25
2023-05-20T23:35:09.497Z,86.29
2023-05-20T23:37:36.131Z,86.27
2023-05-20T23:40:02.564Z,86.26
2023-05-20T23:42:29.252Z,86.32
2023-05-20T23:44:55.728Z,86.27
2023-05-20T23:47:22.372Z,86.30
2023-05-20T23:49:49.615Z,86.28
2023-05-20T23:52:16.118Z,86.28
2023-05-20T23:54:42.804Z,86.28
2023-05-20T23:57:09.429Z,86.30
2023-05-20T23:59:35.845Z,86.28
